sensor_id;sensor_type;location;lat;lon;timestamp;pressure;altitude;pressure_sealevel;temperature;humidity
82388;BME280;72027;47.420;9.310;2024-01-06T00:00:45;92150.94;;;0.61;96.30
82388;BME280;72027;47.420;9.310;2024-01-06T00:03:15;92149.84;;;0.58;96.58
82388;BME280;72027;47.420;9.310;2024-01-06T00:05:43;92149.53;;;0.56;96.21
82388;BME280;72027;47.420;9.310;2024-01-06T00:08:11;92149.59;;;0.53;96.81
82388;BME280;72027;47.420;9.310;2024-01-06T00:10:40;92152.34;;;0.53;96.63
82388;BME280;72027;47.420;9.310;2024-01-06T00:13:08;92148.50;;;0.50;96.52
82388;BME280;72027;47.420;9.310;2024-01-06T00:15:36;92142.31;;;0.50;96.83
82388;BME280;72027;47.420;9.310;2024-01-06T00:18:04;92150.94;;;0.48;97.14
82388;BME280;72027;47.420;9.310;2024-01-06T00:20:32;92156.78;;;0.47;96.23
82388;BME280;72027;47.420;9.310;2024-01-06T00:22:59;92155.28;;;0.46;96.68
82388;BME280;72027;47.420;9.310;2024-01-06T00:25:27;92154.50;;;0.45;97.25
82388;BME280;72027;47.420;9.310;2024-01-06T00:27:56;92151.47;;;0.43;96.22
82388;BME280;72027;47.420;9.310;2024-01-06T00:30:24;92156.56;;;0.41;97.19
82388;BME280;72027;47.420;9.310;2024-01-06T00:32:52;92152.00;;;0.38;96.50
82388;BME280;72027;47.420;9.310;2024-01-06T00:35:20;92152.41;;;0.36;96.94
82388;BME280;72027;47.420;9.310;2024-01-06T00:37:48;92161.78;;;0.35;97.20
82388;BME280;72027;47.420;9.310;2024-01-06T00:40:16;92163.06;;;0.31;97.18
82388;BME280;72027;47.420;9.310;2024-01-06T00:42:45;92167.88;;;0.27;96.58
82388;BME280;72027;47.420;9.310;2024-01-06T00:45:14;92168.69;;;0.24;97.15
82388;BME280;72027;47.420;9.310;2024-01-06T00:47:42;92169.56;;;0.20;97.31
82388;BME280;72027;47.420;9.310;2024-01-06T00:50:10;92178.94;;;0.19;97.18
82388;BME280;72027;47.420;9.310;2024-01-06T00:52:38;92178.59;;;0.17;97.26
82388;BME280;72027;47.420;9.310;2024-01-06T00:55:06;92183.28;;;0.17;96.93
82388;BME280;72027;47.420;9.310;2024-01-06T00:57:34;92183.28;;;0.17;97.55
82388;BME280;72027;47.420;9.310;2024-01-06T01:00:04;92179.47;;;0.14;96.71
82388;BME280;72027;47.420;9.310;2024-01-06T01:02:33;92181.44;;;0.14;97.56
82388;BME280;72027;47.420;9.310;2024-01-06T01:05:04;92176.41;;;0.12;97.39
82388;BME280;72027;47.420;9.310;2024-01-06T01:07:34;92180.34;;;0.11;97.34
82388;BME280;72027;47.420;9.310;2024-01-06T01:10:02;92186.63;;;0.08;97.62
82388;BME280;72027;47.420;9.310;2024-01-06T01:12:31;92190.19;;;0.05;97.07
82388;BME280;72027;47.420;9.310;2024-01-06T01:14:59;92192.59;;;0.03;97.48
82388;BME280;72027;47.420;9.310;2024-01-06T01:17:27;92197.38;;;-0.01;97.69
82388;BME280;72027;47.420;9.310;2024-01-06T01:19:56;92198.22;;;-0.04;96.67
82388;BME280;72027;47.420;9.310;2024-01-06T01:22:24;92201.38;;;-0.06;96.87
82388;BME280;72027;47.420;9.310;2024-01-06T01:24:51;92204.53;;;-0.07;97.51
82388;BME280;72027;47.420;9.310;2024-01-06T01:27:19;92202.22;;;-0.09;96.87
82388;BME280;72027;47.420;9.310;2024-01-06T01:29:47;92202.66;;;-0.10;96.68
82388;BME280;72027;47.420;9.310;2024-01-06T01:32:19;92211.66;;;-0.13;96.83
82388;BME280;72027;47.420;9.310;2024-01-06T01:34:47;92224.97;;;-0.15;96.71
82388;BME280;72027;47.420;9.310;2024-01-06T01:37:16;92219.94;;;-0.17;97.18
82388;BME280;72027;47.420;9.310;2024-01-06T01:39:44;92222.31;;;-0.19;97.05
82388;BME280;72027;47.420;9.310;2024-01-06T01:42:12;92226.31;;;-0.24;97.46
82388;BME280;72027;47.420;9.310;2024-01-06T01:44:40;92230.22;;;-0.25;96.74
82388;BME280;72027;47.420;9.310;2024-01-06T01:47:07;92238.81;;;-0.26;97.21
82388;BME280;72027;47.420;9.310;2024-01-06T01:49:35;92247.00;;;-0.26;96.67
82388;BME280;72027;47.420;9.310;2024-01-06T01:52:04;92242.72;;;-0.27;96.59
82388;BME280;72027;47.420;9.310;2024-01-06T01:54:33;92243.56;;;-0.30;96.47
82388;BME280;72027;47.420;9.310;2024-01-06T01:57:02;92249.13;;;-0.34;97.30
82388;BME280;72027;47.420;9.310;2024-01-06T01:59:30;92243.75;;;-0.37;96.73
82388;BME280;72027;47.420;9.310;2024-01-06T02:01:58;92234.06;;;-0.38;96.93
82388;BME280;72027;47.420;9.310;2024-01-06T02:04:26;92230.56;;;-0.39;96.65
82388;BME280;72027;47.420;9.310;2024-01-06T02:06:53;92237.97;;;-0.39;97.23
82388;BME280;72027;47.420;9.310;2024-01-06T02:09:21;92238.38;;;-0.41;96.78
82388;BME280;72027;47.420;9.310;2024-01-06T02:11:56;92226.00;;;-0.42;97.17
82388;BME280;72027;47.420;9.310;2024-01-06T02:14:24;92228.34;;;-0.44;96.76
82388;BME280;72027;47.420;9.310;2024-01-06T02:16:52;92228.88;;;-0.49;97.12
82388;BME280;72027;47.420;9.310;2024-01-06T02:19:19;92230.06;;;-0.50;97.32
82388;BME280;72027;47.420;9.310;2024-01-06T02:21:51;92234.72;;;-0.51;97.20
82388;BME280;72027;47.420;9.310;2024-01-06T02:24:19;92237.88;;;-0.52;96.92
82388;BME280;72027;47.420;9.310;2024-01-06T02:26:47;92239.06;;;-0.53;96.69
82388;BME280;72027;47.420;9.310;2024-01-06T02:29:15;92233.59;;;-0.53;97.44
82388;BME280;72027;47.420;9.310;2024-01-06T02:31:43;92237.88;;;-0.52;97.03
82388;BME280;72027;47.420;9.310;2024-01-06T02:34:11;92234.81;;;-0.54;96.93
82388;BME280;72027;47.420;9.310;2024-01-06T02:36:39;92244.16;;;-0.55;96.80
82388;BME280;72027;47.420;9.310;2024-01-06T02:39:08;92246.44;;;-0.54;96.81
82388;BME280;72027;47.420;9.310;2024-01-06T02:41:36;92240.25;;;-0.54;97.38
82388;BME280;72027;47.420;9.310;2024-01-06T02:44:04;92242.97;;;-0.54;97.30
82388;BME280;72027;47.420;9.310;2024-01-06T02:46:34;92244.50;;;-0.53;96.74
82388;BME280;72027;47.420;9.310;2024-01-06T02:49:02;92253.44;;;-0.53;96.69
82388;BME280;72027;47.420;9.310;2024-01-06T02:51:30;92256.16;;;-0.53;96.93
82388;BME280;72027;47.420;9.310;2024-01-06T02:53:57;92257.34;;;-0.54;97.59
82388;BME280;72027;47.420;9.310;2024-01-06T02:56:27;92262.00;;;-0.54;97.04
82388;BME280;72027;47.420;9.310;2024-01-06T02:58:54;92262.78;;;-0.54;97.45
82388;BME280;72027;47.420;9.310;2024-01-06T03:01:22;92264.38;;;-0.56;97.18
82388;BME280;72027;47.420;9.310;2024-01-06T03:03:50;92260.16;;;-0.57;96.88
82388;BME280;72027;47.420;9.310;2024-01-06T03:06:18;92261.00;;;-0.60;97.35
82388;BME280;72027;47.420;9.310;2024-01-06T03:08:46;92264.56;;;-0.63;97.81
82388;BME280;72027;47.420;9.310;2024-01-06T03:11:13;92269.22;;;-0.64;97.76
82388;BME280;72027;47.420;9.310;2024-01-06T03:13:43;92262.66;;;-0.67;97.64
82388;BME280;72027;47.420;9.310;2024-01-06T03:16:11;92264.63;;;-0.67;97.02
82388;BME280;72027;47.420;9.310;2024-01-06T03:18:39;92266.22;;;-0.70;97.42
82388;BME280;72027;47.420;9.310;2024-01-06T03:21:16;92267.84;;;-0.72;97.65
82388;BME280;72027;47.420;9.310;2024-01-06T03:23:44;92265.56;;;-0.74;97.14
82388;BME280;72027;47.420;9.310;2024-01-06T03:26:12;92266.72;;;-0.75;97.02
82388;BME280;72027;47.420;9.310;2024-01-06T03:28:39;92267.53;;;-0.74;97.66
82388;BME280;72027;47.420;9.310;2024-01-06T03:31:09;92267.16;;;-0.76;97.04
82388;BME280;72027;47.420;9.310;2024-01-06T03:33:37;92274.97;;;-0.78;97.49
82388;BME280;72027;47.420;9.310;2024-01-06T03:36:05;92276.19;;;-0.79;97.17
82388;BME280;72027;47.420;9.310;2024-01-06T03:38:33;92271.50;;;-0.79;97.94
82388;BME280;72027;47.420;9.310;2024-01-06T03:41:01;92275.38;;;-0.80;97.92
82388;BME280;72027;47.420;9.310;2024-01-06T03:43:29;92270.38;;;-0.81;97.50
82388;BME280;72027;47.420;9.310;2024-01-06T03:45:57;92270.38;;;-0.81;98.07
82388;BME280;72027;47.420;9.310;2024-01-06T03:48:28;92270.78;;;-0.83;97.73
82388;BME280;72027;47.420;9.310;2024-01-06T03:50:56;92270.78;;;-0.83;97.54
82388;BME280;72027;47.420;9.310;2024-01-06T03:53:23;92270.47;;;-0.85;97.29
82388;BME280;72027;47.420;9.310;2024-01-06T03:55:52;92271.28;;;-0.88;97.31
82388;BME280;72027;47.420;9.310;2024-01-06T03:58:20;92274.00;;;-0.88;97.51
82388;BME280;72027;47.420;9.310;2024-01-06T04:00:48;92278.28;;;-0.87;97.31
82388;BME280;72027;47.420;9.310;2024-01-06T04:03:16;92270.13;;;-0.87;97.93
82388;BME280;72027;47.420;9.310;2024-01-06T04:05:45;92278.28;;;-0.87;97.86
82388;BME280;72027;47.420;9.310;2024-01-06T04:08:13;92283.28;;;-0.85;97.56
82388;BME280;72027;47.420;9.310;2024-01-06T04:10:41;92280.91;;;-0.83;97.79
82388;BME280;72027;47.420;9.310;2024-01-06T04:13:11;92285.19;;;-0.82;97.67
82388;BME280;72027;47.420;9.310;2024-01-06T04:15:38;92288.66;;;-0.82;97.92
82388;BME280;72027;47.420;9.310;2024-01-06T04:18:06;92295.97;;;-0.79;97.32
82388;BME280;72027;47.420;9.310;2024-01-06T04:20:36;92297.16;;;-0.80;97.67
82388;BME280;72027;47.420;9.310;2024-01-06T04:23:05;92303.38;;;-0.79;97.69
82388;BME280;72027;47.420;9.310;2024-01-06T04:25:33;92299.84;;;-0.80;97.46
82388;BME280;72027;47.420;9.310;2024-01-06T04:28:01;92302.16;;;-0.78;98.17
82388;BME280;72027;47.420;9.310;2024-01-06T04:30:28;92305.66;;;-0.78;97.59
82388;BME280;72027;47.420;9.310;2024-01-06T04:32:56;92302.53;;;-0.76;97.23
82388;BME280;72027;47.420;9.310;2024-01-06T04:35:25;92306.00;;;-0.76;97.83
82388;BME280;72027;47.420;9.310;2024-01-06T04:37:53;92301.31;;;-0.75;98.02
82388;BME280;72027;47.420;9.310;2024-01-06T04:40:22;92318.41;;;-0.75;97.72
82388;BME280;72027;47.420;9.310;2024-01-06T04:42:49;92317.63;;;-0.75;97.61
82388;BME280;72027;47.420;9.310;2024-01-06T04:45:17;92312.97;;;-0.75;98.02
82388;BME280;72027;47.420;9.310;2024-01-06T04:47:46;92309.06;;;-0.74;98.32
82388;BME280;72027;47.420;9.310;2024-01-06T04:50:14;92312.97;;;-0.75;97.90
82388;BME280;72027;47.420;9.310;2024-01-06T04:52:42;92305.59;;;-0.74;98.24
82388;BME280;72027;47.420;9.310;2024-01-06T04:55:10;92318.09;;;-0.77;97.54
82388;BME280;72027;47.420;9.310;2024-01-06T04:57:39;92317.72;;;-0.79;97.65
82388;BME280;72027;47.420;9.310;2024-01-06T05:00:08;92314.66;;;-0.81;97.43
82388;BME280;72027;47.420;9.310;2024-01-06T05:02:35;92320.84;;;-0.80;98.24
82388;BME280;72027;47.420;9.310;2024-01-06T05:05:04;92321.63;;;-0.80;97.84
82388;BME280;72027;47.420;9.310;2024-01-06T05:07:31;92328.59;;;-0.79;97.69
82388;BME280;72027;47.420;9.310;2024-01-06T05:09:59;92330.88;;;-0.77;98.14
82388;BME280;72027;47.420;9.310;2024-01-06T05:12:27;92327.41;;;-0.78;97.75
82388;BME280;72027;47.420;9.310;2024-01-06T05:14:56;92333.59;;;-0.77;97.50
82388;BME280;72027;47.420;9.310;2024-01-06T05:17:24;92334.41;;;-0.77;97.58
82388;BME280;72027;47.420;9.310;2024-01-06T05:19:52;92329.38;;;-0.78;97.52
82388;BME280;72027;47.420;9.310;2024-01-06T05:22:20;92335.56;;;-0.78;97.56
82388;BME280;72027;47.420;9.310;2024-01-06T05:24:47;92335.16;;;-0.76;97.73
82388;BME280;72027;47.420;9.310;2024-01-06T05:27:19;92337.13;;;-0.77;98.07
82388;BME280;72027;47.420;9.310;2024-01-06T05:29:47;92340.59;;;-0.76;98.26
82388;BME280;72027;47.420;9.310;2024-01-06T05:32:17;92330.88;;;-0.77;98.26
82388;BME280;72027;47.420;9.310;2024-01-06T05:34:45;92346.44;;;-0.78;98.17
82388;BME280;72027;47.420;9.310;2024-01-06T05:37:13;92342.19;;;-0.79;98.25
82388;BME280;72027;47.420;9.310;2024-01-06T05:39:41;92341.84;;;-0.81;97.56
82388;BME280;72027;47.420;9.310;2024-01-06T05:42:09;92350.84;;;-0.84;97.51
82388;BME280;72027;47.420;9.310;2024-01-06T05:44:38;92352.84;;;-0.88;97.90
82388;BME280;72027;47.420;9.310;2024-01-06T05:47:06;92368.91;;;-0.94;97.86
82388;BME280;72027;47.420;9.310;2024-01-06T05:49:41;92374.81;;;-0.99;97.41
82388;BME280;72027;47.420;9.310;2024-01-06T05:52:09;92381.84;;;-1.01;97.90
82388;BME280;72027;47.420;9.310;2024-01-06T05:54:40;92378.00;;;-1.04;97.95
82388;BME280;72027;47.420;9.310;2024-01-06T05:57:08;92374.53;;;-1.04;98.27
82388;BME280;72027;47.420;9.310;2024-01-06T05:59:36;92373.03;;;-1.05;97.40
82388;BME280;72027;47.420;9.310;2024-01-06T06:02:04;92366.03;;;-1.06;98.22
82388;BME280;72027;47.420;9.310;2024-01-06T06:04:31;92369.19;;;-1.08;97.78
82388;BME280;72027;47.420;9.310;2024-01-06T06:07:01;92375.81;;;-1.09;97.53
82388;BME280;72027;47.420;9.310;2024-01-06T06:09:29;92370.03;;;-1.11;98.02
82388;BME280;72027;47.420;9.310;2024-01-06T06:11:56;92369.25;;;-1.12;97.59
82388;BME280;72027;47.420;9.310;2024-01-06T06:14:24;92369.25;;;-1.12;98.33
82388;BME280;72027;47.420;9.310;2024-01-06T06:16:54;92366.53;;;-1.12;98.22
82388;BME280;72027;47.420;9.310;2024-01-06T06:19:23;92368.91;;;-1.14;97.52
82388;BME280;72027;47.420;9.310;2024-01-06T06:21:51;92368.91;;;-1.14;98.00
82388;BME280;72027;47.420;9.310;2024-01-06T06:24:20;92377.06;;;-1.14;97.62
82388;BME280;72027;47.420;9.310;2024-01-06T06:26:48;92377.81;;;-1.13;97.80
82388;BME280;72027;47.420;9.310;2024-01-06T06:29:16;92382.50;;;-1.14;97.68
82388;BME280;72027;47.420;9.310;2024-01-06T06:31:44;92379.00;;;-1.14;98.68
82388;BME280;72027;47.420;9.310;2024-01-06T06:34:13;92377.06;;;-1.14;98.48
82388;BME280;72027;47.420;9.310;2024-01-06T06:36:41;92382.06;;;-1.12;97.91
82388;BME280;72027;47.420;9.310;2024-01-06T06:39:09;92391.00;;;-1.12;98.13
82388;BME280;72027;47.420;9.310;2024-01-06T06:41:38;92387.50;;;-1.12;98.49
82388;BME280;72027;47.420;9.310;2024-01-06T06:44:06;92391.75;;;-1.11;98.53
82388;BME280;72027;47.420;9.310;2024-01-06T06:46:33;92406.88;;;-1.10;98.59
82388;BME280;72027;47.420;9.310;2024-01-06T06:49:01;92401.09;;;-1.12;98.30
82388;BME280;72027;47.420;9.310;2024-01-06T06:51:29;92402.28;;;-1.13;98.68
82388;BME280;72027;47.420;9.310;2024-01-06T06:53:57;92408.13;;;-1.15;98.30
82388;BME280;72027;47.420;9.310;2024-01-06T06:56:25;92403.13;;;-1.16;98.68
82388;BME280;72027;47.420;9.310;2024-01-06T06:58:54;92403.50;;;-1.18;98.34
82388;BME280;72027;47.420;9.310;2024-01-06T07:01:22;92412.88;;;-1.19;98.65
82388;BME280;72027;47.420;9.310;2024-01-06T07:03:50;92410.16;;;-1.19;98.45
82388;BME280;72027;47.420;9.310;2024-01-06T07:06:18;92398.50;;;-1.19;98.06
82388;BME280;72027;47.420;9.310;2024-01-06T07:08:45;92404.72;;;-1.19;98.14
82388;BME280;72027;47.420;9.310;2024-01-06T07:11:13;92410.91;;;-1.18;97.85
82388;BME280;72027;47.420;9.310;2024-01-06T07:13:44;92404.72;;;-1.19;98.04
82388;BME280;72027;47.420;9.310;2024-01-06T07:16:14;92409.38;;;-1.19;98.12
82388;BME280;72027;47.420;9.310;2024-01-06T07:18:44;92417.09;;;-1.18;98.54
82388;BME280;72027;47.420;9.310;2024-01-06T07:21:12;92421.78;;;-1.18;98.52
82388;BME280;72027;47.420;9.310;2024-01-06T07:23:40;92421.38;;;-1.17;98.12
82388;BME280;72027;47.420;9.310;2024-01-06T07:26:09;92423.31;;;-1.17;97.99
82388;BME280;72027;47.420;9.310;2024-01-06T07:28:37;92425.63;;;-1.16;98.68
82388;BME280;72027;47.420;9.310;2024-01-06T07:31:04;92425.63;;;-1.16;98.91
82388;BME280;72027;47.420;9.310;2024-01-06T07:33:34;92431.41;;;-1.14;98.22
82388;BME280;72027;47.420;9.310;2024-01-06T07:36:02;92432.94;;;-1.13;98.81
82388;BME280;72027;47.420;9.310;2024-01-06T07:38:30;92429.38;;;-1.09;98.76
82388;BME280;72027;47.420;9.310;2024-01-06T07:40:58;92437.13;;;-1.08;98.58
82388;BME280;72027;47.420;9.310;2024-01-06T07:43:26;92436.69;;;-1.06;98.25
82388;BME280;72027;47.420;9.310;2024-01-06T07:45:54;92440.97;;;-1.05;98.97
82388;BME280;72027;47.420;9.310;2024-01-06T07:48:22;92447.53;;;-1.03;98.73
82388;BME280;72027;47.420;9.310;2024-01-06T07:50:53;92445.94;;;-1.00;98.19
82388;BME280;72027;47.420;9.310;2024-01-06T07:53:22;92456.03;;;-1.01;98.46
82388;BME280;72027;47.420;9.310;2024-01-06T07:55:50;92458.31;;;-0.99;98.31
82388;BME280;72027;47.420;9.310;2024-01-06T07:58:18;92453.25;;;-0.97;98.55
82388;BME280;72027;47.420;9.310;2024-01-06T08:00:46;92457.84;;;-0.94;98.99
82388;BME280;72027;47.420;9.310;2024-01-06T08:03:14;92453.53;;;-0.92;98.19
82388;BME280;72027;47.420;9.310;2024-01-06T08:05:43;92455.06;;;-0.91;97.96
82388;BME280;72027;47.420;9.310;2024-01-06T08:08:12;92455.06;;;-0.91;98.93
82388;BME280;72027;47.420;9.310;2024-01-06T08:10:43;92456.97;;;-0.87;98.55
82388;BME280;72027;47.420;9.310;2024-01-06T08:13:11;92455.00;;;-0.87;98.31
82388;BME280;72027;47.420;9.310;2024-01-06T08:15:39;92458.09;;;-0.85;98.67
82388;BME280;72027;47.420;9.310;2024-01-06T08:18:13;92458.41;;;-0.83;98.53
82388;BME280;72027;47.420;9.310;2024-01-06T08:20:45;92457.56;;;-0.80;97.90
82388;BME280;72027;47.420;9.310;2024-01-06T08:23:14;92460.66;;;-0.78;98.90
82388;BME280;72027;47.420;9.310;2024-01-06T08:25:43;92471.53;;;-0.78;98.03
82388;BME280;72027;47.420;9.310;2024-01-06T08:28:13;92464.91;;;-0.77;98.17
82388;BME280;72027;47.420;9.310;2024-01-06T08:30:44;92467.66;;;-0.77;98.62
82388;BME280;72027;47.420;9.310;2024-01-06T08:33:13;92467.66;;;-0.77;98.33
82388;BME280;72027;47.420;9.310;2024-01-06T08:35:41;92472.25;;;-0.74;98.20
82388;BME280;72027;47.420;9.310;2024-01-06T08:38:08;92472.59;;;-0.72;98.32
82388;BME280;72027;47.420;9.310;2024-01-06T08:40:38;92473.72;;;-0.69;98.35
82388;BME280;72027;47.420;9.310;2024-01-06T08:43:05;92469.03;;;-0.69;97.92
82388;BME280;72027;47.420;9.310;2024-01-06T08:45:33;92466.66;;;-0.67;97.94
82388;BME280;72027;47.420;9.310;2024-01-06T08:48:02;92479.09;;;-0.65;98.27
82388;BME280;72027;47.420;9.310;2024-01-06T08:50:30;92481.38;;;-0.64;98.55
82388;BME280;72027;47.420;9.310;2024-01-06T08:52:57;92471.28;;;-0.63;98.60
82388;BME280;72027;47.420;9.310;2024-01-06T08:55:25;92487.94;;;-0.61;98.36
82388;BME280;72027;47.420;9.310;2024-01-06T08:57:55;92489.03;;;-0.59;98.12
82388;BME280;72027;47.420;9.310;2024-01-06T09:00:23;92486.31;;;-0.59;98.60
82388;BME280;72027;47.420;9.310;2024-01-06T09:02:51;92483.56;;;-0.55;98.32
82388;BME280;72027;47.420;9.310;2024-01-06T09:05:19;92485.09;;;-0.54;98.47
82388;BME280;72027;47.420;9.310;2024-01-06T09:07:47;92485.78;;;-0.50;98.31
82388;BME280;72027;47.420;9.310;2024-01-06T09:10:20;92488.84;;;-0.48;97.72
82388;BME280;72027;47.420;9.310;2024-01-06T09:12:47;92488.44;;;-0.47;98.09
82388;BME280;72027;47.420;9.310;2024-01-06T09:15:17;92485.72;;;-0.47;97.60
82388;BME280;72027;47.420;9.310;2024-01-06T09:17:45;92486.84;;;-0.44;98.28
82388;BME280;72027;47.420;9.310;2024-01-06T09:20:13;92487.94;;;-0.41;98.37
82388;BME280;72027;47.420;9.310;2024-01-06T09:22:40;92487.94;;;-0.41;97.57
82388;BME280;72027;47.420;9.310;2024-01-06T09:25:11;92491.88;;;-0.42;97.93
82388;BME280;72027;47.420;9.310;2024-01-06T09:27:39;92499.59;;;-0.41;97.56
82388;BME280;72027;47.420;9.310;2024-01-06T09:30:08;92498.00;;;-0.38;98.06
82388;BME280;72027;47.420;9.310;2024-01-06T09:32:38;92503.44;;;-0.38;97.99
82388;BME280;72027;47.420;9.310;2024-01-06T09:35:07;92496.47;;;-0.39;98.03
82388;BME280;72027;47.420;9.310;2024-01-06T09:37:35;92504.63;;;-0.39;97.65
82388;BME280;72027;47.420;9.310;2024-01-06T09:40:03;92513.56;;;-0.39;97.63
82388;BME280;72027;47.420;9.310;2024-01-06T09:42:32;92515.09;;;-0.38;98.08
82388;BME280;72027;47.420;9.310;2024-01-06T09:45:00;92526.69;;;-0.34;97.55
82388;BME280;72027;47.420;9.310;2024-01-06T09:47:28;92518.09;;;-0.32;97.43
82388;BME280;72027;47.420;9.310;2024-01-06T09:49:59;92524.31;;;-0.32;98.10
82388;BME280;72027;47.420;9.310;2024-01-06T09:52:30;92512.22;;;-0.31;97.99
82388;BME280;72027;47.420;9.310;2024-01-06T09:55:00;92507.81;;;-0.25;98.27
82388;BME280;72027;47.420;9.310;2024-01-06T09:57:29;92508.53;;;-0.20;98.05
82388;BME280;72027;47.420;9.310;2024-01-06T09:59:57;92509.28;;;-0.20;97.20
82388;BME280;72027;47.420;9.310;2024-01-06T10:02:26;92508.53;;;-0.20;98.11
82388;BME280;72027;47.420;9.310;2024-01-06T10:04:54;92508.88;;;-0.18;97.21
82388;BME280;72027;47.420;9.310;2024-01-06T10:07:25;92512.72;;;-0.16;97.64
82388;BME280;72027;47.420;9.310;2024-01-06T10:09:54;92502.94;;;-0.13;97.57
82388;BME280;72027;47.420;9.310;2024-01-06T10:12:23;92512.66;;;-0.12;97.42
82388;BME280;72027;47.420;9.310;2024-01-06T10:14:51;92506.75;;;-0.11;97.44
82388;BME280;72027;47.420;9.310;2024-01-06T10:17:19;92503.63;;;-0.09;97.54
82388;BME280;72027;47.420;9.310;2024-01-06T10:19:47;92506.34;;;-0.09;97.59
82388;BME280;72027;47.420;9.310;2024-01-06T10:22:16;92509.84;;;-0.09;97.20
82388;BME280;72027;47.420;9.310;2024-01-06T10:24:46;92510.19;;;-0.07;97.51
82388;BME280;72027;47.420;9.310;2024-01-06T10:27:14;92511.31;;;-0.04;97.86
82388;BME280;72027;47.420;9.310;2024-01-06T10:29:42;92519.84;;;-0.02;96.83
82388;BME280;72027;47.420;9.310;2024-01-06T10:32:10;92512.03;;;0.00;96.74
82388;BME280;72027;47.420;9.310;2024-01-06T10:34:38;92516.63;;;0.03;96.56
82388;BME280;72027;47.420;9.310;2024-01-06T10:37:06;92516.19;;;0.05;97.12
82388;BME280;72027;47.420;9.310;2024-01-06T10:39:37;92515.78;;;0.06;96.99
82388;BME280;72027;47.420;9.310;2024-01-06T10:42:06;92513.41;;;0.08;96.81
82388;BME280;72027;47.420;9.310;2024-01-06T10:44:37;92518.75;;;0.12;97.09
82388;BME280;72027;47.420;9.310;2024-01-06T10:47:09;92512.56;;;0.11;96.58
82388;BME280;72027;47.420;9.310;2024-01-06T10:49:38;92510.25;;;0.10;97.40
82388;BME280;72027;47.420;9.310;2024-01-06T10:52:07;92509.84;;;0.11;96.96
82388;BME280;72027;47.420;9.310;2024-01-06T10:54:38;92502.06;;;0.10;96.16
82388;BME280;72027;47.420;9.310;2024-01-06T10:57:11;92501.31;;;0.09;96.16
82388;BME280;72027;47.420;9.310;2024-01-06T10:59:39;92498.94;;;0.11;97.00
82388;BME280;72027;47.420;9.310;2024-01-06T11:02:10;92505.06;;;0.15;96.44
82388;BME280;72027;47.420;9.310;2024-01-06T11:04:39;92496.84;;;0.19;96.29
82388;BME280;72027;47.420;9.310;2024-01-06T11:07:08;92498.28;;;0.24;96.53
82388;BME280;72027;47.420;9.310;2024-01-06T11:09:39;92501.59;;;0.31;96.99
82388;BME280;72027;47.420;9.310;2024-01-06T11:12:13;92503.44;;;0.38;96.26
82388;BME280;72027;47.420;9.310;2024-01-06T11:14:42;92500.97;;;0.43;96.59
82388;BME280;72027;47.420;9.310;2024-01-06T11:17:12;92502.41;;;0.48;96.11
82388;BME280;72027;47.420;9.310;2024-01-06T11:19:44;92496.13;;;0.51;97.02
82388;BME280;72027;47.420;9.310;2024-01-06T11:22:24;92487.09;;;0.54;96.28
82388;BME280;72027;47.420;9.310;2024-01-06T11:24:52;92490.56;;;0.55;96.39
82388;BME280;72027;47.420;9.310;2024-01-06T11:27:23;92492.88;;;0.56;95.78
82388;BME280;72027;47.420;9.310;2024-01-06T11:29:53;92494.00;;;0.59;96.59
82388;BME280;72027;47.420;9.310;2024-01-06T11:32:26;92495.13;;;0.61;96.58
82388;BME280;72027;47.420;9.310;2024-01-06T11:34:56;92488.38;;;0.66;95.51
82388;BME280;72027;47.420;9.310;2024-01-06T11:37:35;92486.25;;;0.74;96.53
82388;BME280;72027;47.420;9.310;2024-01-06T11:40:08;92481.47;;;0.78;95.83
82388;BME280;72027;47.420;9.310;2024-01-06T11:42:37;92481.81;;;0.80;95.91
82388;BME280;72027;47.420;9.310;2024-01-06T11:45:06;92472.44;;;0.81;95.08
82388;BME280;72027;47.420;9.310;2024-01-06T11:47:35;92478.25;;;0.83;94.89
82388;BME280;72027;47.420;9.310;2024-01-06T11:50:06;92479.78;;;0.84;94.68
82388;BME280;72027;47.420;9.310;2024-01-06T11:52:34;92471.50;;;0.87;95.28
82388;BME280;72027;47.420;9.310;2024-01-06T11:55:03;92465.97;;;0.91;94.35
82388;BME280;72027;47.420;9.310;2024-01-06T11:57:31;92468.94;;;0.97;94.49
82388;BME280;72027;47.420;9.310;2024-01-06T12:00:00;92461.88;;;0.99;94.75
82388;BME280;72027;47.420;9.310;2024-01-06T12:02:32;92461.41;;;1.01;94.75
82388;BME280;72027;47.420;9.310;2024-01-06T12:05:00;92461.78;;;1.03;94.82
82388;BME280;72027;47.420;9.310;2024-01-06T12:07:28;92454.69;;;1.05;94.94
82388;BME280;72027;47.420;9.310;2024-01-06T12:10:01;92455.03;;;1.07;94.87
82388;BME280;72027;47.420;9.310;2024-01-06T12:12:29;92446.41;;;1.09;94.54
82388;BME280;72027;47.420;9.310;2024-01-06T12:14:57;92451.44;;;1.10;94.95
82388;BME280;72027;47.420;9.310;2024-01-06T12:17:30;92449.94;;;1.09;94.32
82388;BME280;72027;47.420;9.310;2024-01-06T12:19:58;92455.38;;;1.09;94.81
82388;BME280;72027;47.420;9.310;2024-01-06T12:22:27;92448.31;;;1.12;94.86
82388;BME280;72027;47.420;9.310;2024-01-06T12:24:55;92449.06;;;1.13;94.48
82388;BME280;72027;47.420;9.310;2024-01-06T12:27:24;92444.38;;;1.13;94.20
82388;BME280;72027;47.420;9.310;2024-01-06T12:29:52;92438.50;;;1.15;95.16
82388;BME280;72027;47.420;9.310;2024-01-06T12:32:20;92440.00;;;1.16;93.90
82388;BME280;72027;47.420;9.310;2024-01-06T12:34:50;92443.94;;;1.15;94.30
82388;BME280;72027;47.420;9.310;2024-01-06T12:37:18;92438.50;;;1.15;93.93
82388;BME280;72027;47.420;9.310;2024-01-06T12:39:47;92436.94;;;1.14;94.05
82388;BME280;72027;47.420;9.310;2024-01-06T12:42:15;92443.94;;;1.15;94.31
82388;BME280;72027;47.420;9.310;2024-01-06T12:44:44;92446.34;;;1.13;94.43
82388;BME280;72027;47.420;9.310;2024-01-06T12:47:12;92445.56;;;1.12;94.70
82388;BME280;72027;47.420;9.310;2024-01-06T12:49:40;92443.25;;;1.10;94.47
82388;BME280;72027;47.420;9.310;2024-01-06T12:52:09;92447.19;;;1.09;93.61
82388;BME280;72027;47.420;9.310;2024-01-06T12:54:38;92452.31;;;1.07;94.20
82388;BME280;72027;47.420;9.310;2024-01-06T12:57:09;92450.78;;;1.06;93.74
82388;BME280;72027;47.420;9.310;2024-01-06T12:59:39;92450.44;;;1.04;93.81
82388;BME280;72027;47.420;9.310;2024-01-06T13:02:07;92444.22;;;1.04;94.17
82388;BME280;72027;47.420;9.310;2024-01-06T13:04:35;92443.44;;;1.03;94.19
82388;BME280;72027;47.420;9.310;2024-01-06T13:07:03;92448.88;;;1.03;94.08
82388;BME280;72027;47.420;9.310;2024-01-06T13:09:33;92459.47;;;1.01;94.32